UAE75T YBBN-OMDB
Flight info
| Callsign | UAE75T |
|---|---|
| Flight time | N/A |
| Altitude | 34000 |
| Route | WACKO V250 UNVAT DCT 2456S14730E 23S143E 22S141E 21S139E 19S136E 18S134E 17S132E/N0505F360 16S130E DCT SUNPO DCT ONOXA G326 BLI M766 KIDET/N0496F380 M766 PEBSA/N0489F400 M766 KAT P570 TVM V27 RUVAN V28 DOTAT P570 ITURA M762 VAXAS/N0399F240 M762 MIVEK P574 IMPED |
| Aircraft | A388/J-SADE2E3FGHIJ3J4J5M1RWXY/LB1D1 |
Departure
| Time | N/A |
|---|---|
| Airport | Brisbane International Airport (YBBN) |
Arrival
| Time | 2026-05-05 21:06 |
|---|---|
| Airport | Dubai International Airport (OMDB) |
| Time | Latitude | Longitude | Altitude | Speed | Heading |
|---|---|---|---|---|---|
| 2026-05-05 20:07 | 18.77880 | 62.21322 | 37873 ft | 492 kts | 306° |
| 2026-05-05 20:08 | 18.84527 | 62.11465 | 37864 ft | 493 kts | 306° |
| 2026-05-05 20:08 | 18.93767 | 61.97736 | 37857 ft | 494 kts | 305° |
| 2026-05-05 20:09 | 19.01718 | 61.85898 | 37852 ft | 495 kts | 305° |
| 2026-05-05 20:09 | 19.08337 | 61.76027 | 37859 ft | 495 kts | 305° |
| 2026-05-05 20:10 | 19.16293 | 61.64140 | 37855 ft | 496 kts | 305° |
| 2026-05-05 20:10 | 19.25553 | 61.50276 | 37857 ft | 496 kts | 305° |
| 2026-05-05 20:11 | 19.32166 | 61.40356 | 37861 ft | 496 kts | 305° |
| 2026-05-05 20:11 | 19.40121 | 61.28401 | 37856 ft | 496 kts | 304° |
| 2026-05-05 20:12 | 19.48063 | 61.16442 | 37858 ft | 496 kts | 304° |
| 2026-05-05 20:12 | 19.57284 | 61.02529 | 37848 ft | 496 kts | 304° |
| 2026-05-05 20:13 | 19.63926 | 60.92487 | 37847 ft | 496 kts | 304° |
| 2026-05-05 20:13 | 19.71785 | 60.80583 | 37850 ft | 496 kts | 304° |
| 2026-05-05 20:14 | 19.78167 | 60.70904 | 37826 ft | 496 kts | 305° |
| 2026-05-05 20:14 | 19.80442 | 60.68131 | 37946 ft | 501 kts | 317° |
| 2026-05-05 20:14 | 19.83212 | 60.65884 | 38437 ft | 502 kts | 326° |
| 2026-05-05 20:14 | 19.87414 | 60.63009 | 39109 ft | 500 kts | 326° |
| 2026-05-05 20:15 | 19.93248 | 60.58991 | 39806 ft | 501 kts | 326° |
| 2026-05-05 20:15 | 20.04707 | 60.51058 | 39845 ft | 496 kts | 325° |
| 2026-05-05 20:16 | 20.16228 | 60.43063 | 39843 ft | 494 kts | 325° |
| 2026-05-05 20:16 | 20.27733 | 60.35064 | 39842 ft | 493 kts | 326° |
| 2026-05-05 20:17 | 20.39199 | 60.27078 | 39839 ft | 492 kts | 325° |
| 2026-05-05 20:17 | 20.50575 | 60.19141 | 39833 ft | 491 kts | 325° |
| 2026-05-05 20:18 | 20.62002 | 60.11154 | 39835 ft | 490 kts | 326° |
| 2026-05-05 20:18 | 20.73405 | 60.03169 | 39830 ft | 490 kts | 325° |
| 2026-05-05 20:19 | 20.84789 | 59.95181 | 39830 ft | 489 kts | 326° |
| 2026-05-05 20:19 | 20.96073 | 59.87252 | 39829 ft | 488 kts | 325° |
| 2026-05-05 20:20 | 21.07413 | 59.79267 | 39831 ft | 488 kts | 325° |
| 2026-05-05 20:20 | 21.18738 | 59.71278 | 39838 ft | 487 kts | 325° |
| 2026-05-05 20:21 | 21.29975 | 59.63336 | 39833 ft | 487 kts | 325° |
| 2026-05-05 20:21 | 21.41281 | 59.55331 | 39836 ft | 486 kts | 325° |
| 2026-05-05 20:22 | 21.52566 | 59.47326 | 39837 ft | 486 kts | 325° |
| 2026-05-05 20:22 | 21.63846 | 59.39308 | 39848 ft | 485 kts | 324° |
| 2026-05-05 20:23 | 21.75027 | 59.31346 | 39846 ft | 485 kts | 324° |
| 2026-05-05 20:23 | 21.86269 | 59.23326 | 39855 ft | 485 kts | 324° |
| 2026-05-05 20:24 | 21.97503 | 59.15295 | 39859 ft | 484 kts | 324° |
| 2026-05-05 20:24 | 22.08710 | 59.07269 | 39861 ft | 484 kts | 324° |
| 2026-05-05 20:25 | 22.19840 | 58.99282 | 39870 ft | 483 kts | 324° |
| 2026-05-05 20:25 | 22.31033 | 58.91234 | 39871 ft | 483 kts | 324° |
| 2026-05-05 20:26 | 22.42218 | 58.83177 | 39873 ft | 483 kts | 324° |
| 2026-05-05 20:26 | 22.53387 | 58.75115 | 39869 ft | 482 kts | 323° |
| 2026-05-05 20:27 | 22.64536 | 58.67052 | 39874 ft | 482 kts | 323° |
| 2026-05-05 20:27 | 22.75600 | 58.59034 | 39872 ft | 482 kts | 323° |
| 2026-05-05 20:28 | 22.86724 | 58.50957 | 39880 ft | 481 kts | 323° |
| 2026-05-05 20:28 | 22.97833 | 58.42875 | 39875 ft | 481 kts | 323° |
| 2026-05-05 20:29 | 23.08944 | 58.34776 | 39880 ft | 480 kts | 322° |
| 2026-05-05 20:29 | 23.19929 | 58.26749 | 39851 ft | 478 kts | 322° |
| 2026-05-05 20:30 | 23.30962 | 58.18675 | 39808 ft | 478 kts | 322° |
| 2026-05-05 20:30 | 23.41113 | 58.09555 | 39809 ft | 471 kts | 309° |
| 2026-05-05 20:31 | 23.48912 | 57.98206 | 39811 ft | 468 kts | 303° |
| 2026-05-05 20:31 | 23.55444 | 57.88242 | 39818 ft | 468 kts | 302° |
| 2026-05-05 20:32 | 23.59213 | 57.82464 | 39803 ft | 467 kts | 302° |
| 2026-05-05 20:32 | 23.63168 | 57.76839 | 39810 ft | 468 kts | 305° |
| 2026-05-05 20:33 | 23.67194 | 57.71314 | 39797 ft | 468 kts | 305° |
| 2026-05-05 20:33 | 23.71204 | 57.65733 | 39814 ft | 467 kts | 305° |
| 2026-05-05 20:34 | 23.75197 | 57.60142 | 39823 ft | 467 kts | 304° |
| 2026-05-05 20:34 | 23.79182 | 57.54552 | 39830 ft | 466 kts | 304° |
| 2026-05-05 20:35 | 23.83158 | 57.48970 | 39806 ft | 465 kts | 304° |
| 2026-05-05 20:35 | 23.87101 | 57.43430 | 39804 ft | 465 kts | 304° |
| 2026-05-05 20:36 | 23.91072 | 57.37844 | 39802 ft | 465 kts | 304° |
| 2026-05-05 20:36 | 23.95034 | 57.32263 | 39806 ft | 464 kts | 304° |
| 2026-05-05 20:37 | 23.98988 | 57.26687 | 39802 ft | 464 kts | 304° |
| 2026-05-05 20:37 | 24.02941 | 57.21107 | 39802 ft | 464 kts | 304° |
| 2026-05-05 20:38 | 24.06862 | 57.15566 | 39798 ft | 464 kts | 304° |
| 2026-05-05 20:38 | 24.10806 | 57.09987 | 39792 ft | 464 kts | 304° |
| 2026-05-05 20:39 | 24.14753 | 57.04396 | 39803 ft | 464 kts | 304° |
| 2026-05-05 20:39 | 24.18693 | 56.98810 | 39802 ft | 463 kts | 304° |
| 2026-05-05 20:40 | 24.22604 | 56.93257 | 39798 ft | 463 kts | 304° |
| 2026-05-05 20:40 | 24.26532 | 56.87671 | 39634 ft | 460 kts | 304° |
| 2026-05-05 20:40 | 24.28487 | 56.84889 | 38962 ft | 462 kts | 304° |
| 2026-05-05 20:41 | 24.30459 | 56.82077 | 37865 ft | 470 kts | 304° |
| 2026-05-05 20:41 | 24.32469 | 56.79208 | 36590 ft | 478 kts | 304° |
| 2026-05-05 20:41 | 24.34507 | 56.76302 | 35453 ft | 483 kts | 304° |
| 2026-05-05 20:41 | 24.36539 | 56.73404 | 34347 ft | 488 kts | 304° |
| 2026-05-05 20:42 | 24.38610 | 56.70449 | 33158 ft | 491 kts | 305° |
| 2026-05-05 20:42 | 24.40688 | 56.67482 | 32196 ft | 489 kts | 305° |
| 2026-05-05 20:42 | 24.42747 | 56.64544 | 31438 ft | 482 kts | 306° |
| 2026-05-05 20:42 | 24.44922 | 56.61770 | 30696 ft | 477 kts | 311° |
| 2026-05-05 20:43 | 24.47194 | 56.59153 | 29971 ft | 471 kts | 311° |
| 2026-05-05 20:43 | 24.49426 | 56.56552 | 29130 ft | 466 kts | 311° |
| 2026-05-05 20:43 | 24.51632 | 56.53969 | 28267 ft | 462 kts | 311° |
| 2026-05-05 20:43 | 24.53787 | 56.51444 | 27561 ft | 455 kts | 311° |
| 2026-05-05 20:44 | 24.55942 | 56.48918 | 26736 ft | 451 kts | 311° |
| 2026-05-05 20:44 | 24.58078 | 56.46414 | 25897 ft | 449 kts | 311° |
| 2026-05-05 20:44 | 24.60200 | 56.43926 | 25305 ft | 441 kts | 311° |
| 2026-05-05 20:44 | 24.62279 | 56.41489 | 24693 ft | 434 kts | 312° |
| 2026-05-05 20:45 | 24.66377 | 56.36679 | 23123 ft | 430 kts | 312° |
| 2026-05-05 20:45 | 24.68408 | 56.34294 | 22470 ft | 423 kts | 312° |
| 2026-05-05 20:45 | 24.70427 | 56.32068 | 21940 ft | 413 kts | 319° |
| 2026-05-05 20:46 | 24.72792 | 56.30305 | 21283 ft | 410 kts | 331° |
| 2026-05-05 20:46 | 24.75417 | 56.29107 | 20450 ft | 410 kts | 342° |
| 2026-05-05 20:46 | 24.78177 | 56.28318 | 19724 ft | 408 kts | 345° |
| 2026-05-05 20:46 | 24.80886 | 56.27524 | 19268 ft | 398 kts | 344° |
| 2026-05-05 20:47 | 24.83540 | 56.26728 | 18596 ft | 394 kts | 344° |
| 2026-05-05 20:47 | 24.86113 | 56.25679 | 17737 ft | 396 kts | 331° |
| 2026-05-05 20:47 | 24.88292 | 56.23896 | 17201 ft | 388 kts | 314° |
| 2026-05-05 20:47 | 24.89865 | 56.21579 | 16647 ft | 381 kts | 299° |
| 2026-05-05 20:48 | 24.91128 | 56.19030 | 15988 ft | 377 kts | 299° |
| 2026-05-05 20:48 | 24.92393 | 56.16515 | 15339 ft | 374 kts | 299° |
| 2026-05-05 20:48 | 24.93661 | 56.14026 | 14748 ft | 370 kts | 299° |
| 2026-05-05 20:48 | 24.94923 | 56.11566 | 13998 ft | 371 kts | 299° |
| 2026-05-05 20:49 | 24.96180 | 56.09119 | 13686 ft | 360 kts | 299° |
| 2026-05-05 20:49 | 24.97469 | 56.06829 | 13521 ft | 344 kts | 305° |
| 2026-05-05 20:49 | 24.98964 | 56.04850 | 13381 ft | 329 kts | 312° |
| 2026-05-05 20:49 | 25.00481 | 56.03036 | 13267 ft | 316 kts | 311° |
| 2026-05-05 20:50 | 25.01905 | 56.01297 | 13144 ft | 303 kts | 311° |
| 2026-05-05 20:50 | 25.03286 | 55.99601 | 13050 ft | 291 kts | 311° |
| 2026-05-05 20:50 | 25.04629 | 55.97951 | 12568 ft | 290 kts | 311° |
| 2026-05-05 20:50 | 25.05976 | 55.96297 | 12217 ft | 289 kts | 311° |
| 2026-05-05 20:51 | 25.07318 | 55.94650 | 11843 ft | 288 kts | 311° |
| 2026-05-05 20:51 | 25.08655 | 55.93010 | 11490 ft | 287 kts | 311° |
| 2026-05-05 20:51 | 25.09985 | 55.91378 | 11129 ft | 286 kts | 311° |
| 2026-05-05 20:51 | 25.11307 | 55.89755 | 10787 ft | 284 kts | 310° |
| 2026-05-05 20:52 | 25.12611 | 55.88154 | 10383 ft | 285 kts | 310° |
| 2026-05-05 20:52 | 25.13924 | 55.86540 | 10190 ft | 279 kts | 311° |
| 2026-05-05 20:52 | 25.15214 | 55.84954 | 10012 ft | 276 kts | 310° |
| 2026-05-05 20:52 | 25.16329 | 55.83238 | 9895 ft | 272 kts | 300° |
| 2026-05-05 20:53 | 25.17268 | 55.81502 | 9728 ft | 256 kts | 300° |
| 2026-05-05 20:53 | 25.17844 | 55.79740 | 9554 ft | 236 kts | 272° |
| 2026-05-05 20:53 | 25.17622 | 55.78030 | 9505 ft | 219 kts | 248° |
| 2026-05-05 20:53 | 25.16827 | 55.76690 | 9030 ft | 207 kts | 224° |
| 2026-05-05 20:54 | 25.15635 | 55.75801 | 8269 ft | 212 kts | 210° |
| 2026-05-05 20:54 | 25.14351 | 55.75003 | 7572 ft | 211 kts | 202° |
| 2026-05-05 20:54 | 25.12908 | 55.74861 | 7022 ft | 210 kts | 165° |
| 2026-05-05 20:54 | 25.11681 | 55.75698 | 6777 ft | 212 kts | 129° |
| 2026-05-05 20:55 | 25.10906 | 55.77089 | 6664 ft | 214 kts | 121° |
| 2026-05-05 20:55 | 25.10214 | 55.78535 | 6541 ft | 215 kts | 107° |
| 2026-05-05 20:55 | 25.09946 | 55.80150 | 6332 ft | 212 kts | 109° |
| 2026-05-05 20:55 | 25.09151 | 55.81453 | 5908 ft | 208 kts | 144° |
| 2026-05-05 20:56 | 25.07836 | 55.82011 | 5428 ft | 203 kts | 181° |
| 2026-05-05 20:56 | 25.06516 | 55.81571 | 5253 ft | 202 kts | 218° |
| 2026-05-05 20:56 | 25.05629 | 55.80406 | 5127 ft | 199 kts | 243° |
| 2026-05-05 20:56 | 25.05015 | 55.79040 | 5029 ft | 199 kts | 241° |
| 2026-05-05 20:57 | 25.04281 | 55.77735 | 4920 ft | 201 kts | 237° |
| 2026-05-05 20:57 | 25.03655 | 55.76377 | 4754 ft | 200 kts | 261° |
| 2026-05-05 20:57 | 25.03816 | 55.74895 | 4614 ft | 197 kts | 297° |
| 2026-05-05 20:57 | 25.04539 | 55.73612 | 4424 ft | 197 kts | 304° |
| 2026-05-05 20:58 | 25.05312 | 55.72366 | 4267 ft | 197 kts | 305° |
| 2026-05-05 20:58 | 25.06065 | 55.71109 | 4092 ft | 196 kts | 303° |
| 2026-05-05 20:58 | 25.06778 | 55.69850 | 3934 ft | 196 kts | 302° |
| 2026-05-05 20:58 | 25.07492 | 55.68564 | 3757 ft | 196 kts | 302° |
| 2026-05-05 20:59 | 25.08205 | 55.67278 | 3598 ft | 197 kts | 302° |
| 2026-05-05 20:59 | 25.08924 | 55.65982 | 3420 ft | 198 kts | 302° |
| 2026-05-05 20:59 | 25.09642 | 55.64686 | 3262 ft | 198 kts | 302° |
| 2026-05-05 20:59 | 25.10352 | 55.63406 | 3085 ft | 198 kts | 302° |
| 2026-05-05 21:00 | 25.11065 | 55.62119 | 2926 ft | 198 kts | 302° |
| 2026-05-05 21:00 | 25.11783 | 55.60824 | 2750 ft | 198 kts | 302° |
| 2026-05-05 21:00 | 25.12494 | 55.59541 | 2594 ft | 199 kts | 302° |
| 2026-05-05 21:00 | 25.13215 | 55.58240 | 2397 ft | 198 kts | 302° |
| 2026-05-05 21:01 | 25.13914 | 55.56976 | 2299 ft | 186 kts | 302° |
| 2026-05-05 21:01 | 25.14567 | 55.55799 | 2153 ft | 174 kts | 302° |
| 2026-05-05 21:01 | 25.15200 | 55.54661 | 2033 ft | 176 kts | 302° |
| 2026-05-05 21:01 | 25.15842 | 55.53500 | 2008 ft | 178 kts | 302° |
| 2026-05-05 21:02 | 25.16447 | 55.52404 | 2006 ft | 159 kts | 302° |
| 2026-05-05 21:02 | 25.17000 | 55.51408 | 2005 ft | 151 kts | 303° |
| 2026-05-05 21:02 | 25.17544 | 55.50426 | 1983 ft | 150 kts | 303° |
| 2026-05-05 21:02 | 25.18089 | 55.49442 | 1945 ft | 150 kts | 302° |
| 2026-05-05 21:03 | 25.18626 | 55.48468 | 1794 ft | 149 kts | 302° |
| 2026-05-05 21:03 | 25.19158 | 55.47482 | 1675 ft | 150 kts | 301° |
| 2026-05-05 21:03 | 25.19689 | 55.46485 | 1487 ft | 151 kts | 302° |
| 2026-05-05 21:03 | 25.20233 | 55.45498 | 1293 ft | 150 kts | 303° |
| 2026-05-05 21:04 | 25.20778 | 55.44519 | 1031 ft | 150 kts | 302° |
| 2026-05-05 21:04 | 25.21312 | 55.43558 | 832 ft | 148 kts | 303° |
| 2026-05-05 21:04 | 25.21852 | 55.42599 | 647 ft | 147 kts | 303° |
| 2026-05-05 21:04 | 25.22382 | 55.41645 | 475 ft | 145 kts | 303° |
| 2026-05-05 21:05 | 25.22907 | 55.40690 | 305 ft | 145 kts | 303° |
| 2026-05-05 21:05 | 25.23436 | 55.39743 | 113 ft | 145 kts | 303° |
| 2026-05-05 21:05 | 25.23930 | 55.38839 | 29 ft | 119 kts | 304° |
| 2026-05-05 21:05 | 25.24299 | 55.38211 | 32 ft | 81 kts | 302° |
| 2026-05-05 21:06 | 25.24548 | 55.37761 | 27 ft | 49 kts | 296° |
| 2026-05-05 21:06 | 25.24605 | 55.37565 | 27 ft | 24 kts | 281° |
| 2026-05-05 21:06 | 25.24616 | 55.37377 | 27 ft | 20 kts | 272° |
| 2026-05-05 21:06 | 25.24636 | 55.37255 | 27 ft | 17 kts | 294° |
| 2026-05-05 21:07 | 25.24700 | 55.37125 | 27 ft | 21 kts | 301° |
| 2026-05-05 21:07 | 25.24782 | 55.36976 | 27 ft | 23 kts | 304° |
| 2026-05-05 21:07 | 25.24846 | 55.36856 | 27 ft | 19 kts | 287° |
| 2026-05-05 21:07 | 25.24881 | 55.36700 | 27 ft | 23 kts | 282° |
| 2026-05-05 21:08 | 25.24844 | 55.36633 | 26 ft | 12 kts | 200° |
| 2026-05-05 21:08 | 25.24776 | 55.36592 | 26 ft | 10 kts | 215° |
| 2026-05-05 21:08 | 25.24751 | 55.36573 | 26 ft | 3 kts | 213° |
| 2026-05-05 21:08 | 25.24735 | 55.36562 | 26 ft | 0 kts | 211° |